sensor_id;sensor_type;location;lat;lon;timestamp;pressure;altitude;pressure_sealevel;temperature;humidity
81545;BME280;70990;50.618;7.346;2023-07-29T00:01:49;97556.53;;;17.63;89.43
81545;BME280;70990;50.618;7.346;2023-07-29T00:04:16;97563.50;;;17.67;89.14
81545;BME280;70990;50.618;7.346;2023-07-29T00:06:43;97559.75;;;17.70;89.40
81545;BME280;70990;50.618;7.346;2023-07-29T00:09:09;97552.34;;;17.67;89.58
81545;BME280;70990;50.618;7.346;2023-07-29T00:11:36;97546.13;;;17.63;89.79
81545;BME280;70990;50.618;7.346;2023-07-29T00:14:03;97555.47;;;17.60;90.06
81545;BME280;70990;50.618;7.346;2023-07-29T00:16:30;97554.72;;;17.51;90.32
81545;BME280;70990;50.618;7.346;2023-07-29T00:18:56;97550.09;;;17.48;90.90
81545;BME280;70990;50.618;7.346;2023-07-29T00:21:23;97552.25;;;17.53;90.65
81545;BME280;70990;50.618;7.346;2023-07-29T00:23:49;97548.09;;;17.48;90.82
81545;BME280;70990;50.618;7.346;2023-07-29T00:26:16;97539.97;;;17.50;90.89
81545;BME280;70990;50.618;7.346;2023-07-29T00:28:42;97545.09;;;17.52;90.95
81545;BME280;70990;50.618;7.346;2023-07-29T00:31:09;97538.56;;;17.55;90.64
81545;BME280;70990;50.618;7.346;2023-07-29T00:33:35;97522.75;;;17.52;90.66
81545;BME280;70990;50.618;7.346;2023-07-29T00:36:02;97527.56;;;17.51;91.10
81545;BME280;70990;50.618;7.346;2023-07-29T00:38:28;97525.53;;;17.52;90.65
81545;BME280;70990;50.618;7.346;2023-07-29T00:40:57;97528.53;;;17.48;91.01
81545;BME280;70990;50.618;7.346;2023-07-29T00:43:23;97529.78;;;17.47;91.02
81545;BME280;70990;50.618;7.346;2023-07-29T00:45:50;97513.50;;;17.46;90.79
81545;BME280;70990;50.618;7.346;2023-07-29T00:48:16;97517.53;;;17.45;91.15
81545;BME280;70990;50.618;7.346;2023-07-29T00:50:43;97519.84;;;17.46;90.93
81545;BME280;70990;50.618;7.346;2023-07-29T00:53:10;97518.59;;;17.47;90.82
81545;BME280;70990;50.618;7.346;2023-07-29T00:55:37;97522.16;;;17.48;91.04
81545;BME280;70990;50.618;7.346;2023-07-29T00:58:03;97513.50;;;17.46;90.94
81545;BME280;70990;50.618;7.346;2023-07-29T01:00:32;97515.44;;;17.54;90.72
81545;BME280;70990;50.618;7.346;2023-07-29T01:02:58;97514.78;;;17.59;90.46
81545;BME280;70990;50.618;7.346;2023-07-29T01:05:32;97507.78;;;17.64;90.24
81545;BME280;70990;50.618;7.346;2023-07-29T01:08:21;97502.19;;;17.64;90.25
81545;BME280;70990;50.618;7.346;2023-07-29T01:11:04;97503.84;;;17.70;90.12
81545;BME280;70990;50.618;7.346;2023-07-29T01:13:46;97499.25;;;17.67;90.35
81545;BME280;70990;50.618;7.346;2023-07-29T01:16:21;97494.13;;;17.66;90.50
81545;BME280;70990;50.618;7.346;2023-07-29T01:18:51;97490.34;;;17.69;90.20
81545;BME280;70990;50.618;7.346;2023-07-29T01:21:21;97490.84;;;17.67;90.41
81545;BME280;70990;50.618;7.346;2023-07-29T01:23:52;97492.09;;;17.66;90.28
81545;BME280;70990;50.618;7.346;2023-07-29T01:26:19;97483.88;;;17.63;90.42
81545;BME280;70990;50.618;7.346;2023-07-29T01:28:45;97491.78;;;17.64;90.38
81545;BME280;70990;50.618;7.346;2023-07-29T01:31:23;97488.69;;;17.62;90.36
81545;BME280;70990;50.618;7.346;2023-07-29T01:34:04;97481.16;;;17.54;91.04
81545;BME280;70990;50.618;7.346;2023-07-29T01:36:34;97481.50;;;17.47;91.18
81545;BME280;70990;50.618;7.346;2023-07-29T01:39:03;97491.97;;;17.37;91.74
81545;BME280;70990;50.618;7.346;2023-07-29T01:41:36;97484.88;;;17.36;91.88
81545;BME280;70990;50.618;7.346;2023-07-29T01:44:05;97494.91;;;17.43;91.86
81545;BME280;70990;50.618;7.346;2023-07-29T01:46:39;97487.25;;;17.43;91.58
81545;BME280;70990;50.618;7.346;2023-07-29T01:49:06;97479.84;;;17.40;91.75
81545;BME280;70990;50.618;7.346;2023-07-29T01:51:36;97491.03;;;17.40;91.90
81545;BME280;70990;50.618;7.346;2023-07-29T01:54:02;97482.66;;;17.40;92.07
81545;BME280;70990;50.618;7.346;2023-07-29T01:56:29;97484.09;;;17.36;92.07
81545;BME280;70990;50.618;7.346;2023-07-29T01:58:59;97491.19;;;17.37;92.15
81545;BME280;70990;50.618;7.346;2023-07-29T02:01:28;97486.09;;;17.35;92.41
81545;BME280;70990;50.618;7.346;2023-07-29T02:04:03;97479.91;;;17.31;92.65
81545;BME280;70990;50.618;7.346;2023-07-29T02:06:35;97473.56;;;17.30;92.27
81545;BME280;70990;50.618;7.346;2023-07-29T02:09:06;97476.84;;;17.29;92.74
81545;BME280;70990;50.618;7.346;2023-07-29T02:11:33;97473.75;;;17.27;92.66
81545;BME280;70990;50.618;7.346;2023-07-29T02:13:59;97475.28;;;17.28;92.52
81545;BME280;70990;50.618;7.346;2023-07-29T02:16:26;97478.38;;;17.30;92.59
81545;BME280;70990;50.618;7.346;2023-07-29T02:18:53;97469.41;;;17.26;92.72
81545;BME280;70990;50.618;7.346;2023-07-29T02:21:22;97452.84;;;17.22;92.64
81545;BME280;70990;50.618;7.346;2023-07-29T02:23:49;97463.03;;;17.25;92.49
81545;BME280;70990;50.618;7.346;2023-07-29T02:26:17;97462.47;;;17.21;92.69
81545;BME280;70990;50.618;7.346;2023-07-29T02:28:44;97451.75;;;17.20;93.01
81545;BME280;70990;50.618;7.346;2023-07-29T02:31:16;97443.84;;;17.18;92.73
81545;BME280;70990;50.618;7.346;2023-07-29T02:33:44;97441.38;;;17.20;92.77
81545;BME280;70990;50.618;7.346;2023-07-29T02:36:12;97432.09;;;17.14;93.25
81545;BME280;70990;50.618;7.346;2023-07-29T02:38:40;97434.59;;;17.12;93.09
81545;BME280;70990;50.618;7.346;2023-07-29T02:41:09;97437.09;;;17.10;93.19
81545;BME280;70990;50.618;7.346;2023-07-29T02:43:36;97434.78;;;17.09;93.03
81545;BME280;70990;50.618;7.346;2023-07-29T02:46:03;97445.94;;;17.09;93.17
81545;BME280;70990;50.618;7.346;2023-07-29T02:48:30;97454.00;;;17.07;93.21
81545;BME280;70990;50.618;7.346;2023-07-29T02:50:57;97445.38;;;17.05;92.95
81545;BME280;70990;50.618;7.346;2023-07-29T02:53:24;97450.63;;;17.03;93.10
81545;BME280;70990;50.618;7.346;2023-07-29T02:55:50;97450.56;;;17.12;92.88
81545;BME280;70990;50.618;7.346;2023-07-29T02:58:19;97447.59;;;17.15;92.31
81545;BME280;70990;50.618;7.346;2023-07-29T03:00:45;97443.84;;;17.18;92.16
81545;BME280;70990;50.618;7.346;2023-07-29T03:03:12;97454.63;;;17.11;92.53
81545;BME280;70990;50.618;7.346;2023-07-29T03:05:39;97448.84;;;17.14;92.17
81545;BME280;70990;50.618;7.346;2023-07-29T03:08:06;97442.13;;;17.21;92.13
81545;BME280;70990;50.618;7.346;2023-07-29T03:10:35;97441.84;;;17.19;92.03
81545;BME280;70990;50.618;7.346;2023-07-29T03:13:02;97432.22;;;17.20;92.58
81545;BME280;70990;50.618;7.346;2023-07-29T03:15:28;97441.38;;;17.20;92.12
81545;BME280;70990;50.618;7.346;2023-07-29T03:17:55;97436.97;;;17.28;91.96
81545;BME280;70990;50.618;7.346;2023-07-29T03:20:21;97431.56;;;17.25;92.53
81545;BME280;70990;50.618;7.346;2023-07-29T03:22:48;97433.41;;;17.28;92.14
81545;BME280;70990;50.618;7.346;2023-07-29T03:25:15;97436.00;;;17.31;91.93
81545;BME280;70990;50.618;7.346;2023-07-29T03:27:41;97438.53;;;17.44;91.13
81545;BME280;70990;50.618;7.346;2023-07-29T03:30:09;97425.44;;;17.36;91.47
81545;BME280;70990;50.618;7.346;2023-07-29T03:32:37;97428.81;;;17.40;91.47
81545;BME280;70990;50.618;7.346;2023-07-29T03:35:04;97438.91;;;17.37;91.47
81545;BME280;70990;50.618;7.346;2023-07-29T03:37:30;97439.97;;;17.40;91.49
81545;BME280;70990;50.618;7.346;2023-07-29T03:39:57;97449.50;;;17.33;91.96
81545;BME280;70990;50.618;7.346;2023-07-29T03:42:23;97438.91;;;17.37;91.61
81545;BME280;70990;50.618;7.346;2023-07-29T03:44:52;97443.53;;;17.40;91.84
81545;BME280;70990;50.618;7.346;2023-07-29T03:47:19;97451.56;;;17.47;91.08
81545;BME280;70990;50.618;7.346;2023-07-29T03:49:45;97456.25;;;17.41;91.55
81545;BME280;70990;50.618;7.346;2023-07-29T03:52:16;97467.25;;;17.45;91.63
81545;BME280;70990;50.618;7.346;2023-07-29T03:54:42;97476.47;;;17.36;92.08
81545;BME280;70990;50.618;7.346;2023-07-29T03:57:09;97468.38;;;17.38;91.53
81545;BME280;70990;50.618;7.346;2023-07-29T03:59:35;97473.97;;;17.38;91.19
81545;BME280;70990;50.618;7.346;2023-07-29T04:02:05;97485.50;;;17.31;90.93
81545;BME280;70990;50.618;7.346;2023-07-29T04:04:32;97480.09;;;17.27;90.73
81545;BME280;70990;50.618;7.346;2023-07-29T04:07:02;97471.97;;;17.15;91.71
81545;BME280;70990;50.618;7.346;2023-07-29T04:09:30;97465.50;;;17.09;92.20
81545;BME280;70990;50.618;7.346;2023-07-29T04:11:57;97478.09;;;17.04;92.43
81545;BME280;70990;50.618;7.346;2023-07-29T04:14:23;97478.00;;;16.89;93.09
81545;BME280;70990;50.618;7.346;2023-07-29T04:16:50;97482.03;;;16.88;93.17
81545;BME280;70990;50.618;7.346;2023-07-29T04:19:17;97478.66;;;16.84;93.20
81545;BME280;70990;50.618;7.346;2023-07-29T04:21:43;97483.00;;;16.85;93.20
81545;BME280;70990;50.618;7.346;2023-07-29T04:24:10;97471.22;;;16.81;92.85
81545;BME280;70990;50.618;7.346;2023-07-29T04:26:36;97466.59;;;16.78;93.16
81545;BME280;70990;50.618;7.346;2023-07-29T04:29:03;97480.59;;;16.69;93.59
81545;BME280;70990;50.618;7.346;2023-07-29T04:31:30;97489.84;;;16.75;92.94
81545;BME280;70990;50.618;7.346;2023-07-29T04:33:56;97487.56;;;16.74;93.39
81545;BME280;70990;50.618;7.346;2023-07-29T04:36:23;97484.28;;;16.75;93.26
81545;BME280;70990;50.618;7.346;2023-07-29T04:38:49;97485.81;;;16.76;93.26
81545;BME280;70990;50.618;7.346;2023-07-29T04:41:16;97488.03;;;16.72;93.57
81545;BME280;70990;50.618;7.346;2023-07-29T04:43:42;97481.66;;;16.72;93.37
81545;BME280;70990;50.618;7.346;2023-07-29T04:46:09;97475.63;;;16.73;93.22
81545;BME280;70990;50.618;7.346;2023-07-29T04:48:36;97469.84;;;16.77;93.31
81545;BME280;70990;50.618;7.346;2023-07-29T04:51:03;97487.38;;;16.77;93.13
81545;BME280;70990;50.618;7.346;2023-07-29T04:53:29;97479.59;;;16.81;93.02
81545;BME280;70990;50.618;7.346;2023-07-29T04:55:56;97482.09;;;16.79;93.03
81545;BME280;70990;50.618;7.346;2023-07-29T04:58:23;97480.84;;;16.80;92.47
81545;BME280;70990;50.618;7.346;2023-07-29T05:00:49;97482.03;;;16.88;92.49
81545;BME280;70990;50.618;7.346;2023-07-29T05:03:17;97478.31;;;16.91;92.12
81545;BME280;70990;50.618;7.346;2023-07-29T05:05:43;97476.19;;;16.86;92.16
81545;BME280;70990;50.618;7.346;2023-07-29T05:08:10;97469.63;;;16.89;92.53
81545;BME280;70990;50.618;7.346;2023-07-29T05:10:37;97469.31;;;16.87;93.07
81545;BME280;70990;50.618;7.346;2023-07-29T05:13:03;97470.88;;;16.88;92.58
81545;BME280;70990;50.618;7.346;2023-07-29T05:15:30;97484.56;;;16.86;92.32
81545;BME280;70990;50.618;7.346;2023-07-29T05:17:57;97482.81;;;16.89;92.50
81545;BME280;70990;50.618;7.346;2023-07-29T05:20:23;97473.97;;;16.90;92.20
81545;BME280;70990;50.618;7.346;2023-07-29T05:22:50;97469.94;;;16.91;91.65
81545;BME280;70990;50.618;7.346;2023-07-29T05:25:16;97471.50;;;16.92;91.48
81545;BME280;70990;50.618;7.346;2023-07-29T05:27:43;97476.47;;;16.88;91.98
81545;BME280;70990;50.618;7.346;2023-07-29T05:30:09;97487.34;;;16.86;91.50
81545;BME280;70990;50.618;7.346;2023-07-29T05:32:36;97494.75;;;16.89;91.27
81545;BME280;70990;50.618;7.346;2023-07-29T05:35:05;97486.63;;;17.01;91.54
81545;BME280;70990;50.618;7.346;2023-07-29T05:37:32;97491.28;;;17.04;90.88
81545;BME280;70990;50.618;7.346;2023-07-29T05:39:58;97488.47;;;17.04;91.40
81545;BME280;70990;50.618;7.346;2023-07-29T05:42:25;97485.03;;;17.09;91.66
81545;BME280;70990;50.618;7.346;2023-07-29T05:44:52;97500.81;;;17.12;90.91
81545;BME280;70990;50.618;7.346;2023-07-29T05:47:19;97502.38;;;17.13;91.78
81545;BME280;70990;50.618;7.346;2023-07-29T05:49:46;97499.88;;;17.15;92.14
81545;BME280;70990;50.618;7.346;2023-07-29T05:52:13;97497.56;;;17.13;92.15
81545;BME280;70990;50.618;7.346;2023-07-29T05:54:39;97496.28;;;17.23;91.58
81545;BME280;70990;50.618;7.346;2023-07-29T05:57:06;97490.38;;;17.21;91.43
81545;BME280;70990;50.618;7.346;2023-07-29T05:59:32;97484.97;;;17.18;90.56
81545;BME280;70990;50.618;7.346;2023-07-29T06:01:59;97493.41;;;17.09;90.36
81545;BME280;70990;50.618;7.346;2023-07-29T06:04:25;97480.47;;;17.20;90.86
81545;BME280;70990;50.618;7.346;2023-07-29T06:06:52;97484.91;;;17.27;90.26
81545;BME280;70990;50.618;7.346;2023-07-29T06:09:18;97496.09;;;17.27;90.71
81545;BME280;70990;50.618;7.346;2023-07-29T06:11:45;97496.38;;;17.29;90.43
81545;BME280;70990;50.618;7.346;2023-07-29T06:14:11;97510.28;;;17.38;90.64
81545;BME280;70990;50.618;7.346;2023-07-29T06:16:40;97518.38;;;17.36;90.93
81545;BME280;70990;50.618;7.346;2023-07-29T06:19:06;97513.69;;;17.42;90.66
81545;BME280;70990;50.618;7.346;2023-07-29T06:21:33;97513.28;;;17.49;87.72
81545;BME280;70990;50.618;7.346;2023-07-29T06:24:00;97519.63;;;17.35;88.43
81545;BME280;70990;50.618;7.346;2023-07-29T06:26:27;97519.25;;;17.42;89.38
81545;BME280;70990;50.618;7.346;2023-07-29T06:28:54;97519.25;;;17.42;86.92
81545;BME280;70990;50.618;7.346;2023-07-29T06:31:20;97526.69;;;17.45;87.94
81545;BME280;70990;50.618;7.346;2023-07-29T06:33:47;97522.16;;;17.48;87.59
81545;BME280;70990;50.618;7.346;2023-07-29T06:36:13;97539.03;;;17.53;88.57
81545;BME280;70990;50.618;7.346;2023-07-29T06:38:40;97528.91;;;17.65;89.05
81545;BME280;70990;50.618;7.346;2023-07-29T06:41:06;97531.88;;;17.61;88.16
81545;BME280;70990;50.618;7.346;2023-07-29T06:43:33;97528.31;;;17.61;89.35
81545;BME280;70990;50.618;7.346;2023-07-29T06:46:00;97528.16;;;17.55;90.35
81545;BME280;70990;50.618;7.346;2023-07-29T06:48:26;97533.72;;;17.55;89.89
81545;BME280;70990;50.618;7.346;2023-07-29T06:50:53;97530.94;;;17.55;88.57
81545;BME280;70990;50.618;7.346;2023-07-29T06:53:19;97531.72;;;17.56;89.99
81545;BME280;70990;50.618;7.346;2023-07-29T06:55:46;97538.56;;;17.55;89.49
81545;BME280;70990;50.618;7.346;2023-07-29T06:58:12;97536.19;;;17.62;89.18
81545;BME280;70990;50.618;7.346;2023-07-29T07:00:39;97539.41;;;17.70;90.80
81545;BME280;70990;50.618;7.346;2023-07-29T07:03:05;97536.97;;;17.63;91.11
81545;BME280;70990;50.618;7.346;2023-07-29T07:05:32;97550.69;;;17.76;89.21
81545;BME280;70990;50.618;7.346;2023-07-29T07:07:58;97552.00;;;17.89;89.38
81545;BME280;70990;50.618;7.346;2023-07-29T07:10:25;97549.09;;;17.84;86.31
81545;BME280;70990;50.618;7.346;2023-07-29T07:12:51;97540.50;;;17.72;86.24
81545;BME280;70990;50.618;7.346;2023-07-29T07:15:18;97548.56;;;17.70;85.16
81545;BME280;70990;50.618;7.346;2023-07-29T07:17:44;97560.31;;;17.98;85.30
81545;BME280;70990;50.618;7.346;2023-07-29T07:20:11;97562.84;;;18.26;85.73
81545;BME280;70990;50.618;7.346;2023-07-29T07:22:38;97551.84;;;18.37;85.75
81545;BME280;70990;50.618;7.346;2023-07-29T07:25:05;97540.19;;;18.68;85.18
81545;BME280;70990;50.618;7.346;2023-07-29T07:27:34;97553.44;;;18.67;83.55
81545;BME280;70990;50.618;7.346;2023-07-29T07:30:01;97562.78;;;18.79;83.33
81545;BME280;70990;50.618;7.346;2023-07-29T07:32:27;97571.19;;;19.28;86.11
81545;BME280;70990;50.618;7.346;2023-07-29T07:34:54;97559.16;;;19.43;83.94
81545;BME280;70990;50.618;7.346;2023-07-29T07:37:20;97565.19;;;19.36;81.80
81545;BME280;70990;50.618;7.346;2023-07-29T07:39:47;97552.63;;;19.46;79.97
81545;BME280;70990;50.618;7.346;2023-07-29T07:42:13;97562.59;;;19.67;80.71
81545;BME280;70990;50.618;7.346;2023-07-29T07:44:40;97577.97;;;19.57;82.14
81545;BME280;70990;50.618;7.346;2023-07-29T07:47:09;97578.97;;;19.54;80.37
81545;BME280;70990;50.618;7.346;2023-07-29T07:49:35;97576.16;;;19.74;80.38
81545;BME280;70990;50.618;7.346;2023-07-29T07:52:02;97566.84;;;19.83;80.26
81545;BME280;70990;50.618;7.346;2023-07-29T07:54:29;97573.78;;;19.87;80.53
81545;BME280;70990;50.618;7.346;2023-07-29T07:56:55;97567.91;;;19.65;79.72
81545;BME280;70990;50.618;7.346;2023-07-29T07:59:22;97573.59;;;19.36;74.08
81545;BME280;70990;50.618;7.346;2023-07-29T08:01:49;97581.78;;;19.04;75.26
81545;BME280;70990;50.618;7.346;2023-07-29T08:04:15;97570.69;;;18.95;74.52
81545;BME280;70990;50.618;7.346;2023-07-29T08:06:42;97576.97;;;19.05;77.40
81545;BME280;70990;50.618;7.346;2023-07-29T08:09:08;97579.66;;;18.99;77.14
81545;BME280;70990;50.618;7.346;2023-07-29T08:11:35;97576.91;;;19.19;77.84
81545;BME280;70990;50.618;7.346;2023-07-29T08:14:02;97581.06;;;19.59;76.89
81545;BME280;70990;50.618;7.346;2023-07-29T08:16:28;97575.03;;;19.31;76.58
81545;BME280;70990;50.618;7.346;2023-07-29T08:18:55;97574.13;;;19.54;78.52
81545;BME280;70990;50.618;7.346;2023-07-29T08:21:21;97553.72;;;19.74;77.02
81545;BME280;70990;50.618;7.346;2023-07-29T08:23:48;97573.84;;;19.52;73.44
81545;BME280;70990;50.618;7.346;2023-07-29T08:26:14;97578.38;;;19.50;75.43
81545;BME280;70990;50.618;7.346;2023-07-29T08:28:41;97572.16;;;19.25;76.66
81545;BME280;70990;50.618;7.346;2023-07-29T08:31:07;97570.78;;;19.36;75.98
81545;BME280;70990;50.618;7.346;2023-07-29T08:33:35;97569.97;;;19.15;75.72
81545;BME280;70990;50.618;7.346;2023-07-29T08:36:02;97564.53;;;18.91;76.39
81545;BME280;70990;50.618;7.346;2023-07-29T08:38:29;97583.72;;;18.98;78.14
81545;BME280;70990;50.618;7.346;2023-07-29T08:44:09;97574.03;;;19.14;75.48
81545;BME280;70990;50.618;7.346;2023-07-29T08:46:39;97572.53;;;18.98;74.82
81545;BME280;70990;50.618;7.346;2023-07-29T08:49:06;97584.72;;;18.66;73.80
81545;BME280;70990;50.618;7.346;2023-07-29T08:51:34;97594.53;;;18.46;76.06
81545;BME280;70990;50.618;7.346;2023-07-29T08:54:01;97600.34;;;18.58;75.68
81545;BME280;70990;50.618;7.346;2023-07-29T08:56:27;97610.44;;;18.02;76.36
81545;BME280;70990;50.618;7.346;2023-07-29T08:58:54;97608.69;;;17.90;76.63
81545;BME280;70990;50.618;7.346;2023-07-29T09:01:21;97607.84;;;17.98;76.86
81545;BME280;70990;50.618;7.346;2023-07-29T09:03:47;97615.16;;;17.96;77.37
81545;BME280;70990;50.618;7.346;2023-07-29T09:06:14;97608.72;;;18.04;79.58
81545;BME280;70990;50.618;7.346;2023-07-29T09:08:43;97613.03;;;17.91;79.70
81545;BME280;70990;50.618;7.346;2023-07-29T09:11:13;97613.19;;;17.87;80.39
81545;BME280;70990;50.618;7.346;2023-07-29T09:13:40;97618.59;;;17.91;78.95
81545;BME280;70990;50.618;7.346;2023-07-29T09:16:07;97607.13;;;17.89;79.58
81545;BME280;70990;50.618;7.346;2023-07-29T09:18:33;97617.75;;;17.99;80.62
81545;BME280;70990;50.618;7.346;2023-07-29T09:21:00;97615.09;;;18.05;78.31
81545;BME280;70990;50.618;7.346;2023-07-29T09:23:27;97622.81;;;18.10;79.07
81545;BME280;70990;50.618;7.346;2023-07-29T09:26:03;97628.63;;;18.21;81.44
81545;BME280;70990;50.618;7.346;2023-07-29T09:28:34;97622.16;;;18.15;79.46
81545;BME280;70990;50.618;7.346;2023-07-29T09:31:02;97615.38;;;18.07;78.82
81545;BME280;70990;50.618;7.346;2023-07-29T09:33:29;97621.19;;;18.18;78.41
81545;BME280;70990;50.618;7.346;2023-07-29T09:35:56;97620.44;;;18.32;77.24
81545;BME280;70990;50.618;7.346;2023-07-29T09:38:29;97626.72;;;18.27;78.41
81545;BME280;70990;50.618;7.346;2023-07-29T09:40:56;97619.59;;;18.41;78.89
81545;BME280;70990;50.618;7.346;2023-07-29T09:43:29;97622.66;;;18.28;76.79
81545;BME280;70990;50.618;7.346;2023-07-29T09:46:00;97623.22;;;18.18;76.56
81545;BME280;70990;50.618;7.346;2023-07-29T09:48:27;97621.44;;;18.05;76.97
81545;BME280;70990;50.618;7.346;2023-07-29T09:50:54;97631.00;;;17.99;77.61
81545;BME280;70990;50.618;7.346;2023-07-29T09:53:21;97628.66;;;17.97;76.67
81545;BME280;70990;50.618;7.346;2023-07-29T09:55:48;97626.13;;;17.99;78.29
81545;BME280;70990;50.618;7.346;2023-07-29T09:58:19;97627.16;;;18.11;79.36
81545;BME280;70990;50.618;7.346;2023-07-29T10:00:48;97633.69;;;18.08;78.48
81545;BME280;70990;50.618;7.346;2023-07-29T10:03:21;97636.50;;;18.08;79.94
81545;BME280;70990;50.618;7.346;2023-07-29T10:05:48;97633.41;;;18.06;80.12
81545;BME280;70990;50.618;7.346;2023-07-29T10:08:16;97634.63;;;18.29;80.23
81545;BME280;70990;50.618;7.346;2023-07-29T10:10:43;97635.91;;;18.42;81.82
81545;BME280;70990;50.618;7.346;2023-07-29T10:13:12;97635.88;;;18.66;80.18
81545;BME280;70990;50.618;7.346;2023-07-29T10:15:42;97628.31;;;18.58;78.43
81545;BME280;70990;50.618;7.346;2023-07-29T10:18:10;97626.00;;;18.71;78.33
81545;BME280;70990;50.618;7.346;2023-07-29T10:20:40;97630.66;;;18.74;77.92
81545;BME280;70990;50.618;7.346;2023-07-29T10:23:11;97633.53;;;18.94;77.10
81545;BME280;70990;50.618;7.346;2023-07-29T10:25:43;97623.41;;;18.82;76.67
81545;BME280;70990;50.618;7.346;2023-07-29T10:28:15;97625.25;;;18.85;76.92
81545;BME280;70990;50.618;7.346;2023-07-29T10:30:43;97621.38;;;18.68;77.08
81545;BME280;70990;50.618;7.346;2023-07-29T10:33:10;97616.47;;;18.77;78.51
81545;BME280;70990;50.618;7.346;2023-07-29T10:35:37;97618.44;;;19.21;77.86
81545;BME280;70990;50.618;7.346;2023-07-29T10:38:05;97609.19;;;19.85;78.01
81545;BME280;70990;50.618;7.346;2023-07-29T10:40:51;97618.25;;;20.35;74.71
81545;BME280;70990;50.618;7.346;2023-07-29T10:43:19;97621.16;;;20.46;71.12
81545;BME280;70990;50.618;7.346;2023-07-29T10:45:49;97622.66;;;20.67;72.41
81545;BME280;70990;50.618;7.346;2023-07-29T10:53:55;97618.75;;;20.59;69.46
81545;BME280;70990;50.618;7.346;2023-07-29T10:56:27;97625.22;;;20.45;69.06
81545;BME280;70990;50.618;7.346;2023-07-29T11:01:57;97629.16;;;20.53;64.80
81545;BME280;70990;50.618;7.346;2023-07-29T11:04:25;97621.56;;;20.59;65.17
81545;BME280;70990;50.618;7.346;2023-07-29T11:12:38;97620.09;;;20.43;67.69
81545;BME280;70990;50.618;7.346;2023-07-29T11:15:21;97619.19;;;20.32;68.80
81545;BME280;70990;50.618;7.346;2023-07-29T11:17:55;97611.91;;;20.20;65.78
81545;BME280;70990;50.618;7.346;2023-07-29T11:20:30;97613.88;;;20.13;68.19
81545;BME280;70990;50.618;7.346;2023-07-29T11:22:58;97618.53;;;20.17;69.91
81545;BME280;70990;50.618;7.346;2023-07-29T11:25:28;97621.97;;;19.86;68.81
81545;BME280;70990;50.618;7.346;2023-07-29T11:27:56;97620.88;;;19.63;69.58
81545;BME280;70990;50.618;7.346;2023-07-29T11:30:23;97625.88;;;19.24;70.04
81545;BME280;70990;50.618;7.346;2023-07-29T11:32:50;97626.00;;;19.00;73.29
81545;BME280;70990;50.618;7.346;2023-07-29T11:35:18;97626.81;;;18.86;73.97
81545;BME280;70990;50.618;7.346;2023-07-29T11:37:47;97630.75;;;18.65;76.31
81545;BME280;70990;50.618;7.346;2023-07-29T11:40:15;97644.56;;;18.44;78.11
81545;BME280;70990;50.618;7.346;2023-07-29T11:42:42;97639.84;;;18.36;82.74
81545;BME280;70990;50.618;7.346;2023-07-29T11:45:10;97632.34;;;17.80;82.16
81545;BME280;70990;50.618;7.346;2023-07-29T11:47:36;97642.94;;;17.76;81.95
81545;BME280;70990;50.618;7.346;2023-07-29T11:50:05;97646.38;;;17.70;83.51
81545;BME280;70990;50.618;7.346;2023-07-29T11:52:32;97633.28;;;17.77;84.03
81545;BME280;70990;50.618;7.346;2023-07-29T11:55:01;97621.47;;;18.20;85.43
81545;BME280;70990;50.618;7.346;2023-07-29T11:57:28;97616.53;;;18.68;83.17
81545;BME280;70990;50.618;7.346;2023-07-29T11:59:54;97611.50;;;19.16;79.31
81545;BME280;70990;50.618;7.346;2023-07-29T12:02:23;97623.81;;;19.54;82.18
81545;BME280;70990;50.618;7.346;2023-07-29T12:04:50;97626.63;;;19.74;77.53
81545;BME280;70990;50.618;7.346;2023-07-29T12:07:17;97625.59;;;19.71;84.06
81545;BME280;70990;50.618;7.346;2023-07-29T12:09:45;97617.53;;;20.20;83.46
81545;BME280;70990;50.618;7.346;2023-07-29T12:12:12;97615.06;;;20.27;79.90
81545;BME280;70990;50.618;7.346;2023-07-29T12:14:38;97608.69;;;20.27;74.29
81545;BME280;70990;50.618;7.346;2023-07-29T12:17:09;97606.13;;;20.49;76.69
81545;BME280;70990;50.618;7.346;2023-07-29T12:19:37;97603.16;;;20.84;77.08
81545;BME280;70990;50.618;7.346;2023-07-29T12:22:05;97602.50;;;20.69;71.79
81545;BME280;70990;50.618;7.346;2023-07-29T12:24:34;97600.63;;;20.86;75.24
81545;BME280;70990;50.618;7.346;2023-07-29T12:27:01;97587.81;;;21.11;70.25
81545;BME280;70990;50.618;7.346;2023-07-29T12:29:28;97585.44;;;21.04;69.30
81545;BME280;70990;50.618;7.346;2023-07-29T12:32:02;97593.34;;;21.73;75.25
81545;BME280;70990;50.618;7.346;2023-07-29T12:34:30;97591.75;;;22.09;72.90
81545;BME280;70990;50.618;7.346;2023-07-29T12:36:59;97581.84;;;21.77;64.09
81545;BME280;70990;50.618;7.346;2023-07-29T12:39:27;97576.16;;;22.20;73.60
81545;BME280;70990;50.618;7.346;2023-07-29T12:41:56;97587.41;;;22.25;68.31
81545;BME280;70990;50.618;7.346;2023-07-29T12:44:24;97582.66;;;22.59;68.11
81545;BME280;70990;50.618;7.346;2023-07-29T12:46:51;97582.38;;;22.63;68.10
81545;BME280;70990;50.618;7.346;2023-07-29T12:49:18;97580.41;;;23.02;68.48
81545;BME280;70990;50.618;7.346;2023-07-29T12:51:45;97574.22;;;22.87;66.45
81545;BME280;70990;50.618;7.346;2023-07-29T12:54:12;97577.31;;;23.11;68.27
81545;BME280;70990;50.618;7.346;2023-07-29T12:56:38;97574.25;;;23.09;66.61
81545;BME280;70990;50.618;7.346;2023-07-29T12:59:05;97588.34;;;23.15;62.67
81545;BME280;70990;50.618;7.346;2023-07-29T13:01:32;97573.47;;;22.98;65.40
81545;BME280;70990;50.618;7.346;2023-07-29T13:03:59;97574.22;;;23.31;62.73
81545;BME280;70990;50.618;7.346;2023-07-29T13:06:27;97574.22;;;23.54;65.04
81545;BME280;70990;50.618;7.346;2023-07-29T13:08:57;97567.56;;;23.35;60.86
81545;BME280;70990;50.618;7.346;2023-07-29T13:11:23;97565.44;;;23.63;62.82
81545;BME280;70990;50.618;7.346;2023-07-29T13:13:50;97567.25;;;23.66;59.22
81545;BME280;70990;50.618;7.346;2023-07-29T13:16:17;97560.44;;;24.02;57.24
81545;BME280;70990;50.618;7.346;2023-07-29T13:18:44;97558.81;;;24.24;59.66
81545;BME280;70990;50.618;7.346;2023-07-29T13:21:10;97557.28;;;24.11;55.19